Time;durP1;ratioP1;P1;durP2;ratioP2;P2;SDS_P1;SDS_P2;PMS_P1;PMS_P2;Temp;Humidity;BMP_temperature;BMP_pressure;BME280_temperature;BME280_humidity;BME280_pressure;Samples;Min_cycle;Max_cycle;Signal;HPM_P1;HPM_P2
2022/06/18 00:00:00;;;;;;;;;;;;;;;-143.90;100.00;54906.72;3045360;19;19952;-64
2022/06/18 00:01:01;;;;;;;;;;;;;;;-143.90;100.00;54888.84;3043203;19;19940;-64
2022/06/18 00:02:05;;;;;;;;;;;;;;;-143.90;100.00;54888.84;3047671;19;20284;-62
2022/06/18 00:03:06;;;;;;;;;;;;;;;-143.90;100.00;54916.63;3034801;19;20332;-63
2022/06/18 00:04:08;;;;;;;;;;;;;;;-143.90;100.00;54920.59;3041708;19;19919;-63
2022/06/18 00:05:09;;;;;;;;;;;;;;;-143.90;100.00;54906.72;3042293;19;19930;-64
2022/06/18 00:06:10;;;;;;;;;;;;;;;-143.90;100.00;54896.78;3043344;19;19925;-63
2022/06/18 00:07:13;;;;;;;;;;;;;;;-143.90;100.00;54853.09;3041152;19;19922;-62
2022/06/18 00:08:20;;;;;;;;;;;;;;;-143.90;100.00;54912.66;3041336;19;19982;-63
2022/06/18 00:09:23;;;;;;;;;;;;;;;-143.90;100.00;54904.72;3044914;19;20498;-63
2022/06/18 00:10:25;;;;;;;;;;;;;;;-143.90;100.00;54918.63;3044303;19;19955;-63
2022/06/18 00:14:05;;;;;;;;;;;;;;;-143.90;100.00;54892.81;3045645;19;19923;-63
2022/06/18 00:15:11;;;;;;;;;;;;;;;-143.90;100.00;54892.81;3045091;19;19919;-62
2022/06/18 00:16:14;;;;;;;;;;;;;;;-143.90;100.00;54910.69;3041040;19;20039;-62
2022/06/18 00:17:16;;;;;;;;;;;;;;;-143.90;100.00;54908.69;3046994;19;19994;-62
2022/06/18 00:18:17;;;;;;;;;;;;;;;-143.90;100.00;54918.63;3046348;19;20470;-62
2022/06/18 00:19:18;;;;;;;;;;;;;;;-143.90;100.00;54888.84;3045093;19;20028;-62
2022/06/18 00:20:19;;;;;;;;;;;;;;;-143.90;100.00;54910.69;3044063;19;19951;-62
2022/06/18 00:21:21;;;;;;;;;;;;;;;-143.90;100.00;54872.97;3044034;19;19949;-62
2022/06/18 00:22:22;;;;;;;;;;;;;;;-143.90;100.00;54920.59;3042695;19;19922;-62
2022/06/18 00:23:23;;;;;;;;;;;;;;;-143.90;100.00;54902.75;3043704;19;19926;-62
2022/06/18 00:24:24;;;;;;;;;;;;;;;-143.90;100.00;54888.84;3044885;19;19926;-62
2022/06/18 00:25:24;;;;;;;;;;;;;;;-143.90;100.00;54918.63;3039672;19;19919;-62
2022/06/18 00:26:25;;;;;;;;;;;;;;;-143.90;100.00;54912.66;3044285;19;20393;-62
2022/06/18 00:27:27;;;;;;;;;;;;;;;-143.90;100.00;54900.75;3044296;19;19922;-62
2022/06/18 00:28:29;;;;;;;;;;;;;;;-143.90;100.00;54946.41;3042064;19;19927;-62
2022/06/18 00:29:30;;;;;;;;;;;;;;;-143.90;100.00;54948.41;3046330;19;20285;-62
2022/06/18 00:30:31;;;;;;;;;;;;;;;-143.90;100.00;54900.75;3048024;19;19951;-62
2022/06/18 00:31:32;;;;;;;;;;;;;;;-143.90;100.00;54940.47;3046004;19;19926;-63
2022/06/18 00:32:33;;;;;;;;;;;;;;;-143.90;100.00;54872.97;3048276;19;20039;-62
2022/06/18 00:33:39;;;;;;;;;;;;;;;-143.90;100.00;54890.81;3046432;19;19919;-63
2022/06/18 00:34:40;;;;;;;;;;;;;;;-143.90;100.00;54920.59;3044188;19;19922;-62
2022/06/18 00:35:40;;;;;;;;;;;;;;;-143.90;100.00;54872.97;3047721;19;19942;-62
2022/06/18 00:36:42;;;;;;;;;;;;;;;-143.90;100.00;54876.94;3045280;19;19922;-62
2022/06/18 00:37:43;;;;;;;;;;;;;;;-143.90;100.00;54924.59;3048341;19;19918;-62
2022/06/18 00:38:45;;;;;;;;;;;;;;;-143.90;100.00;54892.81;3047308;19;19915;-63
2022/06/18 00:39:46;;;;;;;;;;;;;;;-143.90;100.00;54908.69;3048255;19;20010;-63
2022/06/18 00:40:47;;;;;;;;;;;;;;;-143.90;100.00;54912.66;3050104;19;19931;-63
2022/06/18 00:41:51;;;;;;;;;;;;;;;-143.90;100.00;54916.63;3048044;19;19942;-63
2022/06/18 00:42:52;;;;;;;;;;;;;;;-143.90;100.00;54924.59;3049081;19;19923;-63
2022/06/18 00:44:01;;;;;;;;;;;;;;;-143.90;100.00;54916.63;3048090;19;19915;-62
2022/06/18 00:45:01;;;;;;;;;;;;;;;-143.90;100.00;54916.63;3048472;19;19923;-62
2022/06/18 00:46:05;;;;;;;;;;;;;;;-143.90;100.00;54912.66;3049037;19;19922;-62
2022/06/18 00:47:09;;;;;;;;;;;;;;;-143.90;100.00;54952.38;3043719;19;19919;-63
2022/06/18 00:48:19;;;;;;;;;;;;;;;-143.90;100.00;54924.59;3048179;19;19951;-63
2022/06/18 00:49:22;;;;;;;;;;;;;;;-143.90;100.00;54926.56;3049200;19;19925;-62
2022/06/18 00:50:24;;;;;;;;;;;;;;;-143.90;100.00;54932.53;3045708;19;19923;-63
2022/06/18 00:51:25;;;;;;;;;;;;;;;-143.90;100.00;54928.56;3046367;19;19926;-61
2022/06/18 00:52:49;;;;;;;;;;;;;;;-143.90;100.00;54906.72;3049113;19;19994;-62
2022/06/18 00:53:54;;;;;;;;;;;;;;;-143.90;100.00;54912.66;3046464;19;19919;-62
2022/06/18 00:54:57;;;;;;;;;;;;;;;-143.90;100.00;54940.47;3047560;19;21051;-63
2022/06/18 00:56:06;;;;;;;;;;;;;;;-143.90;100.00;54914.66;3046421;19;19923;-62
2022/06/18 00:57:12;;;;;;;;;;;;;;;-143.90;100.00;54942.44;3047127;19;19923;-62
2022/06/18 00:58:39;;;;;;;;;;;;;;;-143.90;100.00;54912.66;3046197;19;19959;-62
2022/06/18 00:59:47;;;;;;;;;;;;;;;-143.90;100.00;54898.78;3045993;19;19943;-62
2022/06/18 01:00:49;;;;;;;;;;;;;;;-143.90;100.00;54922.59;3045636;19;20045;-62
2022/06/18 01:01:50;;;;;;;;;;;;;;;-143.90;100.00;54936.50;3048968;19;19987;-62
2022/06/18 01:02:52;;;;;;;;;;;;;;;-143.90;100.00;54894.78;3045912;19;19919;-62
2022/06/18 01:03:55;;;;;;;;;;;;;;;-143.90;100.00;54890.81;3045809;19;19929;-62
2022/06/18 01:04:56;;;;;;;;;;;;;;;-143.90;100.00;54904.72;3049238;19;19915;-63
2022/06/18 01:05:58;;;;;;;;;;;;;;;-143.90;100.00;54940.47;3045923;19;20497;-63
2022/06/18 01:07:11;;;;;;;;;;;;;;;-143.90;100.00;54912.66;3047580;19;20363;-63
2022/06/18 01:08:16;;;;;;;;;;;;;;;-143.90;100.00;54944.44;3048390;19;19915;-63
2022/06/18 01:09:17;;;;;;;;;;;;;;;-143.90;100.00;54918.63;3046564;19;19961;-63
2022/06/18 01:10:28;;;;;;;;;;;;;;;-143.90;100.00;54892.81;3046839;19;20025;-63
2022/06/18 01:11:30;;;;;;;;;;;;;;;-143.90;100.00;54902.75;3047439;19;19927;-63
2022/06/18 01:12:31;;;;;;;;;;;;;;;-143.90;100.00;54920.59;3047521;19;20010;-63
2022/06/18 01:13:36;;;;;;;;;;;;;;;-143.90;100.00;54928.56;3046800;19;19930;-63
2022/06/18 01:14:38;;;;;;;;;;;;;;;-143.90;100.00;54940.47;3042184;19;19922;-63
2022/06/18 01:15:39;;;;;;;;;;;;;;;-143.90;100.00;54896.78;3046361;19;20806;-63
2022/06/18 01:16:40;;;;;;;;;;;;;;;-143.90;100.00;54896.78;3045611;19;19927;-64
2022/06/18 01:17:43;;;;;;;;;;;;;;;-143.90;100.00;54920.59;3040474;19;19919;-61
2022/06/18 01:18:44;;;;;;;;;;;;;;;-143.90;100.00;54906.72;3045681;19;19951;-62
2022/06/18 01:19:46;;;;;;;;;;;;;;;-143.90;100.00;54912.66;3043770;19;19926;-62
2022/06/18 01:20:54;;;;;;;;;;;;;;;-143.90;100.00;54920.59;3048031;19;19987;-62
2022/06/18 01:22:04;;;;;;;;;;;;;;;-143.90;100.00;54904.72;3047798;19;19950;-63
2022/06/18 01:23:08;;;;;;;;;;;;;;;-143.90;100.00;54904.72;3045911;19;19946;-62
2022/06/18 01:24:16;;;;;;;;;;;;;;;-143.90;100.00;54932.53;3046034;19;19923;-62
2022/06/18 01:25:18;;;;;;;;;;;;;;;-143.90;100.00;54904.72;3044772;19;19926;-62
2022/06/18 01:26:22;;;;;;;;;;;;;;;-143.90;100.00;54900.75;3042312;19;20560;-62
2022/06/18 01:27:23;;;;;;;;;;;;;;;-143.90;100.00;54900.75;3044922;19;21026;-61
2022/06/18 01:28:25;;;;;;;;;;;;;;;-143.90;100.00;54916.63;3048088;19;19923;-62
2022/06/18 01:29:26;;;;;;;;;;;;;;;-143.90;100.00;54936.50;3044392;19;19921;-62
2022/06/18 01:30:30;;;;;;;;;;;;;;;-143.90;100.00;54892.81;3046129;19;19931;-61
2022/06/18 01:31:31;;;;;;;;;;;;;;;-143.90;100.00;54922.59;3043622;19;19972;-62
2022/06/18 01:32:32;;;;;;;;;;;;;;;-143.90;100.00;54900.75;3046650;19;19918;-62
2022/06/18 01:33:34;;;;;;;;;;;;;;;-143.90;100.00;54932.53;3049035;19;19982;-63
2022/06/18 01:34:35;;;;;;;;;;;;;;;-143.90;100.00;54916.63;3045581;19;20899;-63
2022/06/18 01:35:37;;;;;;;;;;;;;;;-143.90;100.00;54892.81;3045822;19;20712;-63
2022/06/18 01:36:43;;;;;;;;;;;;;;;-143.90;100.00;54916.63;3047401;19;20278;-63
2022/06/18 01:37:44;;;;;;;;;;;;;;;-143.90;100.00;54880.91;3045522;19;19947;-63
2022/06/18 01:38:59;;;;;;;;;;;;;;;-143.90;100.00;54904.72;3043769;19;19974;-63
2022/06/18 01:40:00;;;;;;;;;;;;;;;-143.90;100.00;54934.50;3047426;19;19922;-63
2022/06/18 01:42:42;;;;;;;;;;;;;;;-143.90;100.00;54934.50;3047941;19;19930;-62
2022/06/18 01:43:43;;;;;;;;;;;;;;;-143.90;100.00;54924.59;3044707;19;19915;-62
2022/06/18 01:44:48;;;;;;;;;;;;;;;-143.90;100.00;54932.53;3047297;19;19966;-62
2022/06/18 01:45:54;;;;;;;;;;;;;;;-143.90;100.00;54936.50;3046978;19;19925;-62
2022/06/18 01:46:56;;;;;;;;;;;;;;;-143.90;100.00;54916.63;3045533;19;19923;-62
2022/06/18 01:47:58;;;;;;;;;;;;;;;-143.90;100.00;54898.78;3048525;19;19927;-62
2022/06/18 01:49:00;;;;;;;;;;;;;;;-143.90;100.00;54944.44;3046832;19;19950;-62
2022/06/18 01:50:03;;;;;;;;;;;;;;;-143.90;100.00;54948.41;3041135;19;20872;-62
2022/06/18 01:51:23;;;;;;;;;;;;;;;-143.90;100.00;54924.59;3043615;19;19915;-63
2022/06/18 01:52:26;;;;;;;;;;;;;;;-143.90;100.00;54928.56;3046535;19;19939;-62
2022/06/18 01:53:35;;;;;;;;;;;;;;;-143.90;100.00;54906.72;3046488;19;19923;-63
2022/06/18 01:54:41;;;;;;;;;;;;;;;-143.90;100.00;54898.78;3043779;19;19986;-62
2022/06/18 01:55:43;;;;;;;;;;;;;;;-143.90;100.00;54930.53;3045747;19;19930;-62
2022/06/18 01:56:46;;;;;;;;;;;;;;;-143.90;100.00;54928.56;3042738;19;20404;-62
2022/06/18 01:57:51;;;;;;;;;;;;;;;-143.90;100.00;54908.69;3046548;19;19941;-63
2022/06/18 01:58:54;;;;;;;;;;;;;;;-143.90;100.00;54908.69;3047442;19;19958;-62
2022/06/18 02:00:08;;;;;;;;;;;;;;;-143.90;100.00;54908.69;3047438;19;20079;-62
2022/06/18 02:01:16;;;;;;;;;;;;;;;-143.90;100.00;54908.69;3046980;19;20490;-62
2022/06/18 02:02:17;;;;;;;;;;;;;;;-143.90;100.00;54954.38;3047378;19;20401;-63
2022/06/18 02:03:18;;;;;;;;;;;;;;;-143.90;100.00;54936.50;3045221;19;19929;-63
2022/06/18 02:04:19;;;;;;;;;;;;;;;-143.90;100.00;54918.63;3046774;19;19919;-63
2022/06/18 02:05:20;;;;;;;;;;;;;;;-143.90;100.00;54900.75;3047057;19;20474;-62
2022/06/18 02:06:21;;;;;;;;;;;;;;;-143.90;100.00;54924.59;3044654;19;19948;-62
2022/06/18 02:07:22;;;;;;;;;;;;;;;-143.90;100.00;54892.81;3046775;19;20311;-62
2022/06/18 02:08:23;;;;;;;;;;;;;;;-143.90;100.00;54956.34;3048045;19;20284;-62
2022/06/18 02:09:26;;;;;;;;;;;;;;;-143.90;100.00;54924.59;3048181;19;19923;-62
2022/06/18 02:10:29;;;;;;;;;;;;;;;-143.90;100.00;54944.44;3044692;19;19990;-62
2022/06/18 02:11:31;;;;;;;;;;;;;;;-143.90;100.00;54934.50;3041044;19;19922;-62
2022/06/18 02:12:33;;;;;;;;;;;;;;;-143.90;100.00;54944.44;3048118;19;20007;-62
2022/06/18 02:13:35;;;;;;;;;;;;;;;-143.90;100.00;54918.63;3045692;19;19922;-62
2022/06/18 02:14:36;;;;;;;;;;;;;;;-143.90;100.00;54940.47;3046786;19;19935;-60
2022/06/18 02:15:41;;;;;;;;;;;;;;;-143.90;100.00;54916.63;3045201;19;20013;-62
2022/06/18 02:16:43;;;;;;;;;;;;;;;-143.90;100.00;54884.88;3046909;19;19922;-62
2022/06/18 02:17:44;;;;;;;;;;;;;;;-143.90;100.00;54926.56;3048613;19;19930;-62
2022/06/18 02:18:45;;;;;;;;;;;;;;;-143.90;100.00;54892.81;3045512;19;20766;-62
2022/06/18 02:19:52;;;;;;;;;;;;;;;-143.90;100.00;54948.41;3048534;19;19927;-61
2022/06/18 02:20:54;;;;;;;;;;;;;;;-143.90;100.00;54920.59;3048156;19;19919;-61
2022/06/18 02:21:55;;;;;;;;;;;;;;;-143.90;100.00;54892.81;3045550;19;19930;-61
2022/06/18 02:22:56;;;;;;;;;;;;;;;-143.90;100.00;54936.50;3046282;19;19929;-60
2022/06/18 02:23:57;;;;;;;;;;;;;;;-143.90;100.00;54938.47;3046300;19;19918;-62
2022/06/18 02:24:58;;;;;;;;;;;;;;;-143.90;100.00;54932.53;3049009;19;19922;-61
2022/06/18 02:25:59;;;;;;;;;;;;;;;-143.90;100.00;54900.75;3045269;19;20323;-62
2022/06/18 02:26:59;;;;;;;;;;;;;;;-143.90;100.00;54906.72;3046001;19;19922;-63
2022/06/18 02:28:04;;;;;;;;;;;;;;;-143.90;100.00;54906.72;3048062;19;19923;-62
2022/06/18 02:29:06;;;;;;;;;;;;;;;-143.90;100.00;54928.56;3047920;19;19930;-62
2022/06/18 02:30:17;;;;;;;;;;;;;;;-143.90;100.00;54934.50;3045488;19;19918;-63
2022/06/18 02:31:19;;;;;;;;;;;;;;;-143.90;100.00;54934.50;3048570;19;19918;-62
2022/06/18 02:32:23;;;;;;;;;;;;;;;-143.90;100.00;54928.56;3045391;19;19944;-62
2022/06/18 02:33:36;;;;;;;;;;;;;;;-143.90;100.00;54936.50;3045962;19;19943;-61
2022/06/18 02:34:37;;;;;;;;;;;;;;;-143.90;100.00;54916.63;3045097;19;19925;-62
2022/06/18 02:35:37;;;;;;;;;;;;;;;-143.90;100.00;54948.41;3045559;19;19929;-61
2022/06/18 02:36:40;;;;;;;;;;;;;;;-143.90;100.00;54930.53;3042632;19;19941;-62
2022/06/18 02:37:41;;;;;;;;;;;;;;;-143.90;100.00;54934.50;3046911;19;19919;-62
2022/06/18 02:38:43;;;;;;;;;;;;;;;-143.90;100.00;54869.00;3046123;19;19926;-62
2022/06/18 02:40:00;;;;;;;;;;;;;;;-143.90;100.00;54934.50;3047681;19;19915;-62
2022/06/18 02:41:00;;;;;;;;;;;;;;;-143.90;100.00;54924.59;3049047;19;19939;-62
2022/06/18 02:42:11;;;;;;;;;;;;;;;-143.90;100.00;54932.53;3048303;19;20489;-62
2022/06/18 02:43:12;;;;;;;;;;;;;;;-143.90;100.00;54930.53;3044765;19;19922;-63
2022/06/18 02:44:13;;;;;;;;;;;;;;;-143.90;100.00;54920.59;3049373;19;19926;-62
2022/06/18 02:45:15;;;;;;;;;;;;;;;-143.90;100.00;54906.72;3045310;19;19919;-64
2022/06/18 02:46:16;;;;;;;;;;;;;;;-143.90;100.00;54900.75;3046501;19;19939;-63
2022/06/18 02:47:17;;;;;;;;;;;;;;;-143.90;100.00;54932.53;3046472;19;19972;-63
2022/06/18 02:48:20;;;;;;;;;;;;;;;-143.90;100.00;54920.59;3046148;19;19932;-63
2022/06/18 02:49:20;;;;;;;;;;;;;;;-143.90;100.00;54964.28;3044903;19;19952;-60
2022/06/18 02:50:24;;;;;;;;;;;;;;;-143.90;100.00;54936.50;3043939;19;19982;-61
2022/06/18 02:51:25;;;;;;;;;;;;;;;-143.90;100.00;54962.31;3044710;19;19947;-61
2022/06/18 02:52:28;;;;;;;;;;;;;;;-143.90;100.00;54918.63;3046222;19;19919;-62
2022/06/18 02:53:29;;;;;;;;;;;;;;;-143.90;100.00;54948.41;3045583;19;20799;-63
2022/06/18 02:54:30;;;;;;;;;;;;;;;-143.90;100.00;54940.47;3043629;19;20489;-62
2022/06/18 02:55:36;;;;;;;;;;;;;;;-143.90;100.00;54924.59;3045756;19;19949;-62
2022/06/18 02:56:36;;;;;;;;;;;;;;;-143.90;100.00;54938.47;3046966;19;20057;-63
2022/06/18 02:57:39;;;;;;;;;;;;;;;-143.90;100.00;54932.53;3046097;19;19922;-61
2022/06/18 02:58:42;;;;;;;;;;;;;;;-143.90;100.00;54948.41;3047712;19;19919;-62
2022/06/18 02:59:43;;;;;;;;;;;;;;;-143.90;100.00;54936.50;3050322;19;19937;-62
2022/06/18 03:00:45;;;;;;;;;;;;;;;-143.90;100.00;54930.53;3044653;19;19918;-61
2022/06/18 03:01:46;;;;;;;;;;;;;;;-143.90;100.00;54944.44;3047400;19;19986;-62
2022/06/18 03:02:47;;;;;;;;;;;;;;;-143.90;100.00;54904.72;3044941;19;19935;-62
2022/06/18 03:03:49;;;;;;;;;;;;;;;-143.90;100.00;54924.59;3043482;19;19933;-61
2022/06/18 03:04:50;;;;;;;;;;;;;;;-143.90;100.00;54928.56;3044452;19;19926;-62
2022/06/18 03:05:54;;;;;;;;;;;;;;;-143.90;100.00;54922.59;3046804;19;20794;-62
2022/06/18 03:06:55;;;;;;;;;;;;;;;-143.90;100.00;54904.72;3044815;19;20884;-62
2022/06/18 03:07:59;;;;;;;;;;;;;;;-143.90;100.00;54948.41;3043668;19;20339;-63
2022/06/18 03:09:00;;;;;;;;;;;;;;;-143.90;100.00;54932.53;3046247;19;19946;-62
2022/06/18 03:12:41;;;;;;;;;;;;;;;-143.90;100.00;54928.56;3046482;19;19923;-62
2022/06/18 03:13:42;;;;;;;;;;;;;;;-143.90;100.00;54900.75;3045403;19;19992;-62
2022/06/18 03:14:43;;;;;;;;;;;;;;;-143.90;100.00;54932.53;3043718;19;19933;-63
2022/06/18 03:15:45;;;;;;;;;;;;;;;-143.90;100.00;54894.78;3042252;19;19946;-61
2022/06/18 03:16:46;;;;;;;;;;;;;;;-143.90;100.00;54956.34;3046130;19;19944;-61
2022/06/18 03:17:47;;;;;;;;;;;;;;;-143.90;100.00;54934.50;3045180;19;19959;-63
2022/06/18 03:18:48;;;;;;;;;;;;;;;-143.90;100.00;54936.50;3047491;19;19923;-62
2022/06/18 03:19:50;;;;;;;;;;;;;;;-143.90;100.00;54904.72;3043528;19;19926;-62
2022/06/18 03:21:10;;;;;;;;;;;;;;;-143.90;100.00;54946.41;3045631;19;19952;-62
2022/06/18 03:22:13;;;;;;;;;;;;;;;-143.90;100.00;54962.31;3045789;19;20000;-62
2022/06/18 03:23:15;;;;;;;;;;;;;;;-143.90;100.00;54950.38;3046560;19;19926;-62
2022/06/18 03:24:16;;;;;;;;;;;;;;;-143.90;100.00;54940.47;3047580;19;20481;-61
2022/06/18 03:25:17;;;;;;;;;;;;;;;-143.90;100.00;54960.31;3043661;19;19923;-62
2022/06/18 03:26:18;;;;;;;;;;;;;;;-143.90;100.00;54932.53;3045691;19;19930;-61
2022/06/18 03:27:24;;;;;;;;;;;;;;;-143.90;100.00;54900.75;3048301;19;19957;-62
2022/06/18 03:28:31;;;;;;;;;;;;;;;-143.90;100.00;54966.28;3045495;19;21065;-62
2022/06/18 03:29:32;;;;;;;;;;;;;;;-143.90;100.00;54918.63;3044363;19;19959;-62
2022/06/18 03:30:33;;;;;;;;;;;;;;;-143.90;100.00;54928.56;3046875;19;20667;-62
2022/06/18 03:31:34;;;;;;;;;;;;;;;-143.90;100.00;54932.53;3043915;19;20280;-63
2022/06/18 03:32:36;;;;;;;;;;;;;;;-143.90;100.00;54938.47;3045275;19;20362;-63
2022/06/18 03:33:36;;;;;;;;;;;;;;;-143.90;100.00;54936.50;3047706;19;20096;-62
2022/06/18 03:34:38;;;;;;;;;;;;;;;-143.90;100.00;54956.34;3043771;19;19931;-62
2022/06/18 03:35:39;;;;;;;;;;;;;;;-143.90;100.00;54932.53;3046214;19;19919;-62
2022/06/18 03:36:40;;;;;;;;;;;;;;;-143.90;100.00;54952.38;3041110;19;19934;-62
2022/06/18 03:37:41;;;;;;;;;;;;;;;-143.90;100.00;54940.47;3042520;19;19935;-62
2022/06/18 03:38:42;;;;;;;;;;;;;;;-143.90;100.00;54924.59;3044460;19;20425;-62
2022/06/18 03:39:43;;;;;;;;;;;;;;;-143.90;100.00;54908.69;3039846;19;19936;-62
2022/06/18 03:40:44;;;;;;;;;;;;;;;-143.90;100.00;54924.59;3042501;19;19914;-63
2022/06/18 03:41:45;;;;;;;;;;;;;;;-143.90;100.00;54928.56;3047061;19;19925;-63
2022/06/18 03:42:47;;;;;;;;;;;;;;;-143.90;100.00;54922.59;3042327;19;19927;-63
2022/06/18 03:43:48;;;;;;;;;;;;;;;-143.90;100.00;54946.41;3043663;19;19978;-62
2022/06/18 03:44:49;;;;;;;;;;;;;;;-143.90;100.00;54924.59;3043786;19;19918;-62
2022/06/18 03:45:51;;;;;;;;;;;;;;;-143.90;100.00;54932.53;3044243;19;19922;-63
2022/06/18 03:46:52;;;;;;;;;;;;;;;-143.90;100.00;54912.66;3045511;19;19922;-63
2022/06/18 03:48:00;;;;;;;;;;;;;;;-143.90;100.00;54936.50;3042530;19;19919;-63
2022/06/18 03:49:01;;;;;;;;;;;;;;;-143.90;100.00;54888.84;3044806;19;20569;-63
2022/06/18 03:50:09;;;;;;;;;;;;;;;-143.90;100.00;54966.28;3047674;19;19965;-63
2022/06/18 03:51:10;;;;;;;;;;;;;;;-143.90;100.00;54940.47;3041633;19;19927;-62
2022/06/18 03:52:11;;;;;;;;;;;;;;;-143.90;100.00;54940.47;3042529;19;19938;-63
2022/06/18 03:53:12;;;;;;;;;;;;;;;-143.90;100.00;54910.69;3045998;19;20021;-63
2022/06/18 03:54:13;;;;;;;;;;;;;;;-143.90;100.00;54928.56;3041539;19;19937;-62
2022/06/18 03:55:15;;;;;;;;;;;;;;;-143.90;100.00;54912.66;3046289;19;19923;-63
2022/06/18 03:56:18;;;;;;;;;;;;;;;-143.90;100.00;54944.44;3046173;19;19926;-63
2022/06/18 03:57:19;;;;;;;;;;;;;;;-143.90;100.00;54938.47;3046654;19;19927;-63
2022/06/18 03:58:21;;;;;;;;;;;;;;;-143.90;100.00;54912.66;3043644;19;20019;-63
2022/06/18 03:59:23;;;;;;;;;;;;;;;-143.90;100.00;54936.50;3046105;19;19923;-63
2022/06/18 04:00:25;;;;;;;;;;;;;;;-143.90;100.00;54928.56;3043047;19;19964;-62
2022/06/18 04:01:32;;;;;;;;;;;;;;;-143.90;100.00;54932.53;3047247;19;19943;-62
2022/06/18 04:02:36;;;;;;;;;;;;;;;-143.90;100.00;54936.50;3044838;19;20537;-62
2022/06/18 04:03:37;;;;;;;;;;;;;;;-143.90;100.00;54940.47;3043725;19;20041;-62
2022/06/18 04:04:42;;;;;;;;;;;;;;;-143.90;100.00;54916.63;3043893;19;20859;-62
2022/06/18 04:05:46;;;;;;;;;;;;;;;-143.90;100.00;54948.41;3042689;19;19927;-61
2022/06/18 04:06:49;;;;;;;;;;;;;;;-143.90;100.00;54924.59;3045818;19;19943;-63
2022/06/18 04:08:14;;;;;;;;;;;;;;;-143.90;100.00;54924.59;3041834;19;19941;-62
2022/06/18 04:09:23;;;;;;;;;;;;;;;-143.90;100.00;54900.75;3045695;19;20569;-62
2022/06/18 04:10:24;;;;;;;;;;;;;;;-143.90;100.00;54916.63;3044527;19;19914;-62
2022/06/18 04:11:26;;;;;;;;;;;;;;;-143.90;100.00;54916.63;3042232;19;19965;-62
2022/06/18 04:12:28;;;;;;;;;;;;;;;-143.90;100.00;54904.72;3045061;19;20818;-62
2022/06/18 04:13:43;;;;;;;;;;;;;;;-143.90;100.00;54904.72;3046151;19;19927;-63
2022/06/18 04:14:49;;;;;;;;;;;;;;;-143.90;100.00;54924.59;3042095;19;20343;-62
2022/06/18 04:16:06;;;;;;;;;;;;;;;-143.90;100.00;54948.41;3045551;19;20033;-62
2022/06/18 04:17:12;;;;;;;;;;;;;;;-143.90;100.00;54886.84;3043935;19;19983;-62
2022/06/18 04:18:16;;;;;;;;;;;;;;;-143.90;100.00;54896.78;3043655;19;19922;-62
2022/06/18 04:19:17;;;;;;;;;;;;;;;-143.90;100.00;54884.88;3043088;19;19929;-62
2022/06/18 04:20:18;;;;;;;;;;;;;;;-143.90;100.00;54904.72;3046422;19;19978;-62
2022/06/18 04:21:19;;;;;;;;;;;;;;;-143.90;100.00;54928.56;3041680;19;19922;-60
2022/06/18 04:22:22;;;;;;;;;;;;;;;-143.90;100.00;54912.66;3044898;19;19926;-62
2022/06/18 04:23:33;;;;;;;;;;;;;;;-143.90;100.00;54916.63;3044388;19;19923;-61
2022/06/18 04:24:34;;;;;;;;;;;;;;;-143.90;100.00;54920.59;3042183;19;19946;-62
2022/06/18 04:25:35;;;;;;;;;;;;;;;-143.90;100.00;54924.59;3046597;19;19939;-61
2022/06/18 04:26:37;;;;;;;;;;;;;;;-143.90;100.00;54904.72;3044270;19;19919;-62
2022/06/18 04:27:38;;;;;;;;;;;;;;;-143.90;100.00;54900.75;3046506;19;19911;-62
2022/06/18 04:28:39;;;;;;;;;;;;;;;-143.90;100.00;54894.78;3046479;19;19925;-61
2022/06/18 04:29:47;;;;;;;;;;;;;;;-143.90;100.00;54916.63;3043414;19;19922;-62
2022/06/18 04:30:48;;;;;;;;;;;;;;;-143.90;100.00;54888.84;3044392;19;20038;-62
2022/06/18 04:31:56;;;;;;;;;;;;;;;-143.90;100.00;54857.06;3044715;19;19933;-62
2022/06/18 04:32:57;;;;;;;;;;;;;;;-143.90;100.00;54892.81;3040965;19;19917;-62
2022/06/18 04:33:58;;;;;;;;;;;;;;;-143.90;100.00;54894.78;3043523;19;19955;-62
2022/06/18 04:35:02;;;;;;;;;;;;;;;-143.90;100.00;54880.91;3041727;19;19938;-62
2022/06/18 04:36:28;;;;;;;;;;;;;;;-143.90;100.00;54904.72;3043417;19;19954;-62
2022/06/18 04:37:29;;;;;;;;;;;;;;;-143.90;100.00;54932.53;3044747;19;19998;-62
2022/06/18 04:38:48;;;;;;;;;;;;;;;-143.90;100.00;54890.81;3045192;19;19986;-62
2022/06/18 04:40:16;;;;;;;;;;;;;;;-143.90;100.00;54880.91;3046101;19;19926;-62
2022/06/18 04:41:35;;;;;;;;;;;;;;;-143.90;100.00;54896.78;3045251;19;19937;-62
2022/06/18 04:42:44;;;;;;;;;;;;;;;-143.90;100.00;54896.78;3044299;19;19990;-63
2022/06/18 04:43:45;;;;;;;;;;;;;;;-143.90;100.00;54888.84;3042354;19;20436;-63
2022/06/18 04:44:46;;;;;;;;;;;;;;;-143.90;100.00;54908.69;3045553;19;19941;-63
2022/06/18 04:45:58;;;;;;;;;;;;;;;-143.90;100.00;54892.81;3043265;19;20367;-63
2022/06/18 04:47:01;;;;;;;;;;;;;;;-143.90;100.00;54874.94;3044715;19;19919;-63
2022/06/18 04:48:04;;;;;;;;;;;;;;;-143.90;100.00;54880.91;3044555;19;20256;-63
2022/06/18 04:49:06;;;;;;;;;;;;;;;-143.90;100.00;54872.97;3041079;19;20778;-64
2022/06/18 04:50:10;;;;;;;;;;;;;;;-143.90;100.00;54896.78;3041940;19;19998;-62
2022/06/18 04:51:11;;;;;;;;;;;;;;;-143.90;100.00;54880.91;3044640;19;19923;-62
2022/06/18 04:52:12;;;;;;;;;;;;;;;-143.90;100.00;54876.94;3043738;19;19925;-62
2022/06/18 04:53:21;;;;;;;;;;;;;;;-143.90;100.00;54859.06;3045511;19;19925;-62
2022/06/18 04:54:27;;;;;;;;;;;;;;;-143.90;100.00;54894.78;3044753;19;19942;-63
2022/06/18 04:55:28;;;;;;;;;;;;;;;-143.90;100.00;54912.66;3040710;19;20289;-63
2022/06/18 04:56:29;;;;;;;;;;;;;;;-143.90;100.00;54888.84;3045436;19;19933;-62
2022/06/18 04:57:30;;;;;;;;;;;;;;;-143.90;100.00;54849.13;3042774;19;19925;-63
2022/06/18 04:58:31;;;;;;;;;;;;;;;-143.90;100.00;54867.00;3044511;19;19919;-63
2022/06/18 04:59:33;;;;;;;;;;;;;;;-143.90;100.00;54872.97;3045206;19;20381;-64
2022/06/18 05:00:34;;;;;;;;;;;;;;;-143.90;100.00;54874.94;3042287;19;19930;-64
2022/06/18 05:01:44;;;;;;;;;;;;;;;-143.90;100.00;54884.88;3038862;19;19922;-63
2022/06/18 05:02:57;;;;;;;;;;;;;;;-143.90;100.00;54872.97;3045135;19;19918;-63
2022/06/18 05:04:10;;;;;;;;;;;;;;;-143.90;100.00;54902.75;3045193;19;19925;-62
2022/06/18 05:05:20;;;;;;;;;;;;;;;-143.90;100.00;54872.97;3042912;19;19927;-63
2022/06/18 05:06:36;;;;;;;;;;;;;;;-143.90;100.00;54884.88;3043786;19;19938;-63
2022/06/18 05:08:12;;;;;;;;;;;;;;;-143.90;100.00;54861.03;3040624;19;19930;-62
2022/06/18 05:09:26;;;;;;;;;;;;;;;-143.90;100.00;54865.00;3044163;19;19952;-62
2022/06/18 05:10:46;;;;;;;;;;;;;;;-143.90;100.00;54900.75;3044805;19;20091;-63
2022/06/18 05:12:02;;;;;;;;;;;;;;;-143.90;100.00;54878.91;3044569;19;19927;-64
2022/06/18 05:13:22;;;;;;;;;;;;;;;-143.90;100.00;54865.00;3039565;19;21487;-64
2022/06/18 05:14:31;;;;;;;;;;;;;;;-143.90;100.00;54853.09;3042450;19;20348;-63
2022/06/18 05:15:36;;;;;;;;;;;;;;;-143.90;100.00;54892.81;3044908;19;19953;-62
2022/06/18 05:16:37;;;;;;;;;;;;;;;-143.90;98.90;54857.06;3040728;19;20558;-64
2022/06/18 05:17:39;;;;;;;;;;;;;;;-143.90;100.00;54837.22;3042500;19;20000;-62
2022/06/18 05:18:43;;;;;;;;;;;;;;;-143.90;98.87;54849.13;3047904;19;19919;-64
2022/06/18 05:19:44;;;;;;;;;;;;;;;-143.90;97.88;54869.00;3043647;19;20620;-64
2022/06/18 05:20:49;;;;;;;;;;;;;;;-143.90;98.07;54845.16;3044600;19;19950;-64
2022/06/18 05:21:51;;;;;;;;;;;;;;;-143.90;97.79;54874.94;3046663;19;19923;-64
2022/06/18 05:22:51;;;;;;;;;;;;;;;-143.90;97.60;54880.91;3045289;19;19919;-63
2022/06/18 05:23:52;;;;;;;;;;;;;;;-143.90;96.33;54880.91;3048129;19;20275;-64
2022/06/18 05:24:56;;;;;;;;;;;;;;;-143.90;94.25;54827.28;3046499;19;19922;-64
2022/06/18 05:25:58;;;;;;;;;;;;;;;-143.90;95.37;54839.22;3046586;19;20061;-62
2022/06/18 05:26:59;;;;;;;;;;;;;;;-143.90;93.05;54872.97;3045594;19;19931;-63